createdAt,value
2023-01-20T00:01:29.642Z,79.07
2023-01-20T00:03:57.623Z,75.77
2023-01-20T00:06:27.789Z,81.37
2023-01-20T00:08:59.497Z,80.70
2023-01-20T00:11:26.747Z,86.57
2023-01-20T00:13:56.100Z,78.33
2023-01-20T00:16:23.494Z,82.20
2023-01-20T00:18:50.306Z,87.30
2023-01-20T00:21:17.479Z,82.17
2023-01-20T00:23:45.452Z,85.20
2023-01-20T00:26:17.818Z,79.90
2023-01-20T00:28:45.497Z,79.17
2023-01-20T00:31:15.212Z,86.53
2023-01-20T00:33:42.177Z,85.13
2023-01-20T00:36:10.525Z,83.47
2023-01-20T00:38:37.491Z,76.53
2023-01-20T00:41:05.237Z,79.83
2023-01-20T00:43:32.084Z,77.50
2023-01-20T00:45:59.017Z,75.53
2023-01-20T00:48:25.725Z,81.40
2023-01-20T00:50:52.458Z,72.30
2023-01-20T00:53:19.207Z,76.63
2023-01-20T00:55:46.191Z,79.77
2023-01-20T00:58:12.829Z,76.67
2023-01-20T01:00:39.571Z,79.53
2023-01-20T01:03:06.260Z,74.80
2023-01-20T01:05:33.935Z,75.37
2023-01-20T01:08:00.638Z,80.80
2023-01-20T01:10:27.414Z,81.67
2023-01-20T01:12:54.030Z,80.17
2023-01-20T01:15:21.009Z,75.70
2023-01-20T01:17:47.724Z,74.03
2023-01-20T01:20:14.970Z,83.37
2023-01-20T01:22:41.738Z,70.33
2023-01-20T01:25:08.568Z,78.30
2023-01-20T01:27:35.555Z,88.53
2023-01-20T01:30:02.759Z,76.43
2023-01-20T01:32:29.437Z,83.87
2023-01-20T01:34:56.193Z,85.33
2023-01-20T01:37:22.919Z,80.80
2023-01-20T01:39:49.604Z,78.90
2023-01-20T01:42:19.167Z,85.87
2023-01-20T01:45:10.728Z,81.70
2023-01-20T01:47:44.736Z,76.97
2023-01-20T01:50:15.058Z,70.13
2023-01-20T01:52:45.478Z,63.17
2023-01-20T01:55:13.856Z,67.40
2023-01-20T01:57:41.333Z,77.60
2023-01-20T02:00:08.712Z,64.30
2023-01-20T02:02:36.330Z,63.60
2023-01-20T02:05:03.316Z,62.27
2023-01-20T02:07:32.537Z,66.03
2023-01-20T02:10:00.371Z,65.57
2023-01-20T02:12:27.658Z,56.77
2023-01-20T02:14:57.894Z,63.30
2023-01-20T02:17:31.748Z,62.53
2023-01-20T02:20:25.658Z,62.60
2023-01-20T02:23:00.826Z,65.33
2023-01-20T02:25:46.287Z,60.37
2023-01-20T02:28:34.534Z,64.07
2023-01-20T02:31:04.179Z,65.07
2023-01-20T02:33:44.482Z,70.40
2023-01-20T02:36:40.291Z,66.13
2023-01-20T02:39:44.529Z,62.10
2023-01-20T02:42:13.076Z,64.63
2023-01-20T02:44:56.065Z,67.20
2023-01-20T02:47:34.893Z,69.83
2023-01-20T02:50:22.661Z,61.13
2023-01-20T02:52:53.511Z,61.07
2023-01-20T02:55:34.953Z,56.37
2023-01-20T02:58:07.373Z,60.40
2023-01-20T03:00:42.513Z,59.77
2023-01-20T03:03:14.200Z,61.63
2023-01-20T03:05:48.418Z,61.93
2023-01-20T03:08:17.485Z,55.93
2023-01-20T03:10:47.963Z,64.03
2023-01-20T03:13:21.831Z,65.30
2023-01-20T03:16:02.785Z,56.27
2023-01-20T03:18:30.580Z,64.43
2023-01-20T03:20:59.628Z,57.73
2023-01-20T03:23:28.663Z,57.90
2023-01-20T03:25:56.590Z,58.03
2023-01-20T03:28:23.311Z,57.00
2023-01-20T03:30:50.398Z,59.53
2023-01-20T03:33:17.942Z,59.73
2023-01-20T03:35:45.511Z,57.37
2023-01-20T03:38:12.425Z,54.53
2023-01-20T03:40:46.955Z,55.00
2023-01-20T03:43:56.107Z,62.87
2023-01-20T03:46:33.235Z,61.00
2023-01-20T03:49:13.307Z,61.30
2023-01-20T03:51:56.801Z,54.97
2023-01-20T03:54:28.183Z,55.17
2023-01-20T03:57:09.364Z,58.50
2023-01-20T03:59:39.228Z,59.37
2023-01-20T04:02:08.199Z,55.70
2023-01-20T04:04:39.038Z,62.27
2023-01-20T04:07:08.117Z,60.07
2023-01-20T04:09:39.645Z,56.87
2023-01-20T04:12:06.839Z,59.77
2023-01-20T04:14:53.421Z,59.50
2023-01-20T04:17:40.262Z,56.73
2023-01-20T04:20:27.841Z,55.67
2023-01-20T04:23:24.224Z,55.30
2023-01-20T04:25:53.972Z,58.77
2023-01-20T04:28:32.253Z,53.40
2023-01-20T04:31:03.359Z,55.20
2023-01-20T04:33:50.169Z,53.10
2023-01-20T04:36:36.764Z,54.07
2023-01-20T04:39:03.814Z,55.77
2023-01-20T04:41:31.978Z,58.87
2023-01-20T04:43:59.153Z,53.40
2023-01-20T04:46:26.014Z,61.67
2023-01-20T04:48:52.682Z,51.70
2023-01-20T04:51:19.378Z,52.13
2023-01-20T04:53:46.095Z,52.30
2023-01-20T04:56:13.940Z,53.93
2023-01-20T04:58:41.559Z,51.73
2023-01-20T05:01:08.886Z,46.57
2023-01-20T05:03:36.509Z,56.37
2023-01-20T05:06:03.355Z,57.27
2023-01-20T05:08:30.116Z,56.17
2023-01-20T05:10:56.837Z,54.83
2023-01-20T05:13:23.560Z,55.37
2023-01-20T05:15:50.367Z,50.43
2023-01-20T05:18:17.075Z,49.80
2023-01-20T05:20:48.358Z,50.73
2023-01-20T05:23:15.883Z,52.37
2023-01-20T05:25:42.493Z,54.27
2023-01-20T05:28:09.290Z,53.80
2023-01-20T05:30:36.058Z,57.47
2023-01-20T05:33:02.692Z,57.97
2023-01-20T05:35:29.380Z,60.50
2023-01-20T05:37:56.201Z,57.43
2023-01-20T05:40:22.957Z,59.50
2023-01-20T05:42:49.683Z,55.03
2023-01-20T05:45:17.253Z,56.43
2023-01-20T05:47:44.286Z,56.40
2023-01-20T05:50:11.617Z,53.30
2023-01-20T05:52:38.323Z,55.33
2023-01-20T05:55:05.964Z,53.83
2023-01-20T05:57:32.686Z,56.67
2023-01-20T05:59:59.359Z,54.97
2023-01-20T06:02:26.066Z,62.07
2023-01-20T06:04:52.775Z,67.60
2023-01-20T06:07:19.519Z,70.60
2023-01-20T06:09:46.180Z,78.23
2023-01-20T06:12:13.105Z,81.73
2023-01-20T06:14:39.839Z,73.53
2023-01-20T06:17:06.555Z,71.40
2023-01-20T06:19:33.178Z,85.30
2023-01-20T06:21:59.942Z,83.00
2023-01-20T06:24:26.573Z,84.43
2023-01-20T06:26:53.313Z,89.10
2023-01-20T06:29:20.396Z,81.80
2023-01-20T06:31:48.170Z,77.83
2023-01-20T06:34:14.874Z,86.27
2023-01-20T06:36:41.552Z,86.97
2023-01-20T06:39:08.579Z,83.13
2023-01-20T06:41:35.295Z,84.47
2023-01-20T06:44:02.105Z,79.70
2023-01-20T06:46:28.929Z,83.93
2023-01-20T06:49:00.480Z,90.33
2023-01-20T06:51:29.741Z,84.27
2023-01-20T06:53:57.303Z,86.80
2023-01-20T06:56:24.510Z,85.07
2023-01-20T06:58:51.445Z,90.37
2023-01-20T07:01:28.539Z,82.70
2023-01-20T07:03:56.032Z,87.90
2023-01-20T07:06:43.033Z,77.40
2023-01-20T07:09:12.344Z,80.30
2023-01-20T07:11:39.706Z,87.33
2023-01-20T07:14:07.123Z,81.03
2023-01-20T07:16:34.621Z,84.97
2023-01-20T07:19:01.417Z,91.20
2023-01-20T07:21:28.707Z,86.30
2023-01-20T07:23:55.504Z,90.97
2023-01-20T07:26:24.640Z,91.83
2023-01-20T07:28:52.227Z,90.57
2023-01-20T07:31:21.388Z,84.07
2023-01-20T07:33:48.684Z,89.00
2023-01-20T07:36:16.647Z,81.00
2023-01-20T07:38:46.486Z,89.27
2023-01-20T07:41:16.384Z,74.90
2023-01-20T07:43:46.100Z,84.20
2023-01-20T07:46:13.955Z,83.80
2023-01-20T07:48:41.223Z,80.53
2023-01-20T07:51:11.738Z,79.10
2023-01-20T07:53:46.580Z,76.73
2023-01-20T07:56:28.087Z,81.43
2023-01-20T07:58:55.253Z,80.33
2023-01-20T08:01:27.747Z,81.30
2023-01-20T08:03:55.200Z,78.40
2023-01-20T08:06:24.076Z,79.80
2023-01-20T08:08:50.865Z,83.40
2023-01-20T08:11:20.382Z,76.30
2023-01-20T08:13:47.207Z,83.03
2023-01-20T08:16:16.185Z,79.93
2023-01-20T08:18:43.323Z,76.53
2023-01-20T08:21:19.434Z,75.87
2023-01-20T08:23:46.092Z,70.47
2023-01-20T08:26:12.795Z,70.10
2023-01-20T08:28:39.606Z,70.87
2023-01-20T08:31:20.245Z,74.43
2023-01-20T08:33:48.261Z,71.13
2023-01-20T08:36:21.687Z,71.17
2023-01-20T08:38:49.348Z,64.90
2023-01-20T08:41:22.350Z,70.77
2023-01-20T08:43:50.731Z,73.20
2023-01-20T08:46:19.287Z,72.37
2023-01-20T08:48:46.188Z,65.60
2023-01-20T08:51:25.713Z,69.13
2023-01-20T08:53:52.448Z,63.20
2023-01-20T08:56:21.251Z,67.10
2023-01-20T08:58:48.497Z,69.43
2023-01-20T09:01:20.533Z,75.47
2023-01-20T09:04:03.306Z,64.63
2023-01-20T09:06:38.056Z,68.30
2023-01-20T09:09:04.856Z,66.23
2023-01-20T09:11:31.805Z,67.37
2023-01-20T09:13:58.472Z,65.20
2023-01-20T09:16:25.254Z,67.17
2023-01-20T09:18:52.284Z,67.50
2023-01-20T09:21:19.027Z,67.83
2023-01-20T09:23:47.992Z,63.23
2023-01-20T09:26:26.089Z,64.53
2023-01-20T09:29:09.904Z,60.93
2023-01-20T09:31:44.626Z,60.87
2023-01-20T09:34:19.637Z,59.03
2023-01-20T09:36:50.447Z,58.77
2023-01-20T09:39:36.388Z,60.90
2023-01-20T09:42:36.209Z,59.10
2023-01-20T09:45:29.704Z,61.47
2023-01-20T09:48:39.602Z,55.53
2023-01-20T09:51:35.371Z,56.47
2023-01-20T09:54:25.510Z,55.87
2023-01-20T09:56:54.462Z,58.67
2023-01-20T09:59:34.831Z,54.30
2023-01-20T10:02:07.230Z,59.67
2023-01-20T10:04:52.335Z,60.17
2023-01-20T10:07:56.955Z,54.37
2023-01-20T10:10:26.663Z,50.87
2023-01-20T10:13:51.690Z,55.03
2023-01-20T10:16:42.067Z,53.40
2023-01-20T10:19:16.667Z,52.93
2023-01-20T10:22:02.147Z,51.90
2023-01-20T10:24:34.050Z,51.07
2023-01-20T10:27:04.921Z,49.33
2023-01-20T10:29:37.543Z,46.23
2023-01-20T10:32:32.381Z,44.97
2023-01-20T10:35:07.305Z,49.83
2023-01-20T10:37:35.709Z,42.97
2023-01-20T10:40:40.214Z,42.97
2023-01-20T10:43:17.665Z,45.10
2023-01-20T10:46:12.509Z,51.07
2023-01-20T10:49:03.707Z,44.97
2023-01-20T10:51:47.638Z,42.00
2023-01-20T10:54:37.139Z,50.60
2023-01-20T10:57:06.535Z,43.73
2023-01-20T10:59:46.980Z,46.73
2023-01-20T11:02:21.027Z,46.67
2023-01-20T11:04:57.735Z,46.40
2023-01-20T11:07:25.714Z,53.37
2023-01-20T11:09:52.420Z,50.30
2023-01-20T11:12:23.296Z,47.70
2023-01-20T11:14:50.093Z,45.63
2023-01-20T11:17:20.385Z,51.13
2023-01-20T11:19:53.289Z,49.37
2023-01-20T11:22:28.932Z,45.13
2023-01-20T11:24:59.442Z,42.40
2023-01-20T11:27:30.214Z,38.07
2023-01-20T11:30:05.119Z,40.13
2023-01-20T11:32:40.112Z,38.53
2023-01-20T11:35:22.983Z,38.23
2023-01-20T11:37:49.699Z,43.30
2023-01-20T11:40:21.419Z,37.37
2023-01-20T11:42:49.846Z,36.73
2023-01-20T11:45:22.514Z,38.80
2023-01-20T11:48:01.709Z,41.73
2023-01-20T11:50:35.189Z,38.87
2023-01-20T11:53:12.546Z,43.57
2023-01-20T11:55:49.521Z,41.97
2023-01-20T11:58:23.303Z,42.90
2023-01-20T12:00:52.782Z,42.57
2023-01-20T12:03:28.020Z,40.73
2023-01-20T12:06:04.171Z,41.17
2023-01-20T12:08:48.706Z,37.40
2023-01-20T12:11:28.494Z,40.33
2023-01-20T12:14:28.967Z,39.03
2023-01-20T12:17:00.018Z,36.83
2023-01-20T12:19:35.623Z,35.90
2023-01-20T12:22:11.455Z,38.73
2023-01-20T12:25:09.460Z,38.77
2023-01-20T12:28:16.538Z,38.03
2023-01-20T12:30:47.638Z,32.77
2023-01-20T12:33:21.633Z,32.90
2023-01-20T12:36:02.897Z,32.00
2023-01-20T12:38:41.666Z,29.87
2023-01-20T12:41:17.897Z,29.03
2023-01-20T12:43:56.427Z,28.00
2023-01-20T12:46:38.256Z,24.57
2023-01-20T12:49:18.910Z,28.17
2023-01-20T12:52:06.903Z,28.63
2023-01-20T12:54:58.995Z,30.00
2023-01-20T12:57:34.691Z,32.30
2023-01-20T13:00:17.407Z,32.53
2023-01-20T13:03:06.305Z,41.03
2023-01-20T13:06:01.800Z,31.93
2023-01-20T13:08:37.552Z,33.97
2023-01-20T13:11:38.657Z,31.53
2023-01-20T13:14:16.529Z,38.53
2023-01-20T13:16:55.794Z,38.07
2023-01-20T13:19:38.812Z,37.77
2023-01-20T13:22:10.606Z,33.47
2023-01-20T13:24:39.373Z,35.10
2023-01-20T13:27:06.338Z,32.97
2023-01-20T13:29:53.095Z,36.60
2023-01-20T13:32:27.435Z,36.37
2023-01-20T13:34:54.315Z,38.83
2023-01-20T13:37:36.928Z,34.67
2023-01-20T13:40:11.899Z,33.37
2023-01-20T13:42:39.570Z,31.93
2023-01-20T13:45:12.705Z,36.10
2023-01-20T13:48:08.437Z,34.63
2023-01-20T13:50:37.559Z,37.67
2023-01-20T13:53:12.591Z,35.73
2023-01-20T13:55:46.030Z,34.60
2023-01-20T13:58:15.974Z,35.10
2023-01-20T14:00:43.012Z,31.23
2023-01-20T14:03:28.069Z,32.40
2023-01-20T14:06:04.770Z,33.10
2023-01-20T14:08:57.668Z,35.13
2023-01-20T14:11:26.443Z,35.27
2023-01-20T14:13:53.139Z,36.43
2023-01-20T14:16:24.510Z,30.53
2023-01-20T14:18:54.915Z,33.97
2023-01-20T14:21:27.907Z,33.70
2023-01-20T14:23:55.210Z,30.83
2023-01-20T14:26:21.911Z,36.23
2023-01-20T14:28:54.631Z,39.30
2023-01-20T14:31:45.755Z,29.23
2023-01-20T14:34:28.684Z,25.93
2023-01-20T14:36:58.015Z,29.90
2023-01-20T14:39:27.791Z,29.80
2023-01-20T14:41:57.090Z,26.97
2023-01-20T14:44:33.355Z,29.77
2023-01-20T14:47:02.850Z,27.47
2023-01-20T14:49:39.601Z,24.33
2023-01-20T14:52:19.207Z,29.00
2023-01-20T14:54:46.219Z,32.10
2023-01-20T14:57:15.807Z,28.27
2023-01-20T14:59:43.695Z,34.63
2023-01-20T15:02:28.411Z,28.87
2023-01-20T15:04:56.163Z,28.20
2023-01-20T15:07:24.654Z,27.33
2023-01-20T15:09:56.897Z,29.43
2023-01-20T15:12:48.555Z,23.07
2023-01-20T15:15:27.417Z,25.60
2023-01-20T15:18:23.948Z,31.17
2023-01-20T15:21:03.825Z,23.67
2023-01-20T15:23:39.626Z,21.90
2023-01-20T15:26:19.597Z,21.27
2023-01-20T15:28:46.490Z,24.87
2023-01-20T15:31:17.608Z,21.20
2023-01-20T15:33:44.870Z,26.13
2023-01-20T15:36:37.145Z,22.87
2023-01-20T15:39:03.884Z,16.70
2023-01-20T15:41:31.100Z,21.40
2023-01-20T15:43:57.927Z,20.77
2023-01-20T15:46:25.147Z,16.00
2023-01-20T15:48:51.828Z,16.77
2023-01-20T15:51:20.111Z,17.70
2023-01-20T15:53:47.964Z,18.50
2023-01-20T15:56:29.391Z,15.23
2023-01-20T15:58:57.744Z,18.27
2023-01-20T16:01:26.553Z,15.67
2023-01-20T16:03:56.812Z,16.07
2023-01-20T16:06:29.778Z,18.63
2023-01-20T16:08:57.004Z,17.97
2023-01-20T16:11:23.792Z,20.20
2023-01-20T16:13:50.665Z,18.13
2023-01-20T16:16:21.011Z,17.17
2023-01-20T16:18:48.869Z,17.40
2023-01-20T16:21:18.220Z,18.53
2023-01-20T16:23:45.472Z,17.07
2023-01-20T16:26:27.297Z,21.47
2023-01-20T16:28:56.451Z,21.77
2023-01-20T16:31:24.694Z,22.23
2023-01-20T16:33:55.380Z,25.10
2023-01-20T16:36:23.776Z,20.90
2023-01-20T16:38:51.631Z,20.53
2023-01-20T16:41:27.666Z,22.37
2023-01-20T16:43:55.327Z,20.57
2023-01-20T16:46:27.754Z,20.87
2023-01-20T16:48:59.413Z,22.27
2023-01-20T16:51:26.670Z,20.67
2023-01-20T16:53:54.451Z,25.03
2023-01-20T16:56:27.737Z,21.53
2023-01-20T16:58:57.880Z,22.77
2023-01-20T17:01:25.693Z,23.67
2023-01-20T17:03:57.961Z,21.30
2023-01-20T17:06:27.223Z,23.00
2023-01-20T17:08:56.471Z,22.53
2023-01-20T17:11:24.301Z,25.50
2023-01-20T17:13:51.711Z,24.53
2023-01-20T17:16:19.470Z,21.60
2023-01-20T17:18:50.453Z,26.00
2023-01-20T17:21:20.645Z,23.53
2023-01-20T17:23:55.732Z,20.63
2023-01-20T17:26:23.563Z,20.90
2023-01-20T17:28:55.350Z,24.83
2023-01-20T17:31:22.814Z,22.73
2023-01-20T17:33:51.067Z,25.37
2023-01-20T17:36:19.858Z,24.60
2023-01-20T17:38:47.093Z,22.17
2023-01-20T17:41:14.502Z,28.93
2023-01-20T17:43:44.484Z,25.27
2023-01-20T17:46:13.967Z,27.13
2023-01-20T17:48:40.907Z,23.40
2023-01-20T17:51:19.081Z,22.83
2023-01-20T17:53:45.879Z,28.93
2023-01-20T17:56:14.476Z,32.30
2023-01-20T17:58:43.657Z,24.63
2023-01-20T18:01:18.932Z,25.67
2023-01-20T18:03:47.523Z,29.57
2023-01-20T18:06:16.674Z,28.53
2023-01-20T18:08:44.315Z,26.53
2023-01-20T18:11:17.091Z,29.17
2023-01-20T18:13:46.256Z,36.97
2023-01-20T18:16:15.391Z,27.80
2023-01-20T18:18:44.027Z,35.03
2023-01-20T18:21:17.282Z,32.33
2023-01-20T18:23:45.047Z,35.43
2023-01-20T18:26:14.162Z,33.83
2023-01-20T18:28:42.073Z,32.17
2023-01-20T18:31:20.005Z,30.70
2023-01-20T18:33:52.158Z,33.03
2023-01-20T18:36:25.132Z,27.57
2023-01-20T18:39:06.379Z,26.93
2023-01-20T18:41:36.568Z,32.37
2023-01-20T18:44:05.520Z,27.23
2023-01-20T18:46:32.412Z,26.13
2023-01-20T18:48:59.559Z,29.07
2023-01-20T18:51:29.567Z,25.87
2023-01-20T18:54:05.880Z,28.60
2023-01-20T18:56:34.213Z,26.70
2023-01-20T18:59:02.704Z,25.97
2023-01-20T19:01:33.785Z,25.43
2023-01-20T19:04:02.293Z,24.40
2023-01-20T19:06:31.404Z,24.43
2023-01-20T19:08:58.927Z,23.37
2023-01-20T19:11:29.406Z,26.07
2023-01-20T19:13:56.391Z,28.03
2023-01-20T19:16:26.148Z,23.23
2023-01-20T19:18:54.998Z,26.60
2023-01-20T19:21:22.869Z,25.03
2023-01-20T19:23:54.032Z,28.23
2023-01-20T19:26:23.284Z,34.97
2023-01-20T19:28:57.340Z,34.77
2023-01-20T19:31:24.387Z,31.17
2023-01-20T19:33:51.652Z,28.63
2023-01-20T19:36:19.436Z,31.13
2023-01-20T19:38:46.386Z,29.27
2023-01-20T19:41:18.893Z,28.80
2023-01-20T19:43:46.113Z,26.33
2023-01-20T19:46:15.298Z,22.60
2023-01-20T19:48:42.463Z,26.53
2023-01-20T19:51:12.220Z,27.20
2023-01-20T19:53:39.281Z,24.43
2023-01-20T19:56:13.291Z,24.10
2023-01-20T19:58:40.903Z,24.73
2023-01-20T20:01:24.692Z,30.17
2023-01-20T20:03:52.625Z,24.90
2023-01-20T20:06:29.481Z,25.83
2023-01-20T20:08:59.124Z,22.77
2023-01-20T20:11:29.707Z,22.30
2023-01-20T20:13:58.025Z,26.67
2023-01-20T20:16:27.257Z,29.17
2023-01-20T20:18:55.035Z,25.33
2023-01-20T20:21:22.462Z,25.07
2023-01-20T20:23:50.921Z,28.13
2023-01-20T20:26:18.391Z,27.53
2023-01-20T20:28:45.229Z,23.27
2023-01-20T20:31:12.199Z,21.57
2023-01-20T20:33:38.992Z,22.23
2023-01-20T20:36:10.015Z,23.70
2023-01-20T20:38:36.994Z,24.73
2023-01-20T20:41:06.943Z,26.03
2023-01-20T20:43:35.026Z,26.77
2023-01-20T20:46:03.211Z,23.83
2023-01-20T20:48:30.680Z,26.13
2023-01-20T20:50:57.487Z,23.17
2023-01-20T20:53:24.196Z,21.53
2023-01-20T20:55:53.923Z,23.30
2023-01-20T20:58:20.812Z,28.97
2023-01-20T21:00:51.102Z,25.87
2023-01-20T21:03:17.893Z,26.67
2023-01-20T21:05:49.475Z,29.63
2023-01-20T21:08:16.882Z,30.90
2023-01-20T21:10:43.513Z,27.03
2023-01-20T21:13:10.253Z,25.93
2023-01-20T21:15:38.406Z,25.97
2023-01-20T21:18:06.224Z,27.57
2023-01-20T21:20:33.640Z,26.00
2023-01-20T21:23:01.357Z,26.50
2023-01-20T21:25:28.125Z,27.87
2023-01-20T21:27:55.870Z,30.47
2023-01-20T21:30:22.764Z,26.73
2023-01-20T21:32:49.528Z,27.90
2023-01-20T21:35:16.252Z,30.37
2023-01-20T21:37:43.514Z,25.83
2023-01-20T21:40:10.984Z,31.77
2023-01-20T21:42:37.727Z,26.80
2023-01-20T21:45:04.677Z,29.47
2023-01-20T21:47:31.873Z,30.23
2023-01-20T21:50:17.274Z,27.37
2023-01-20T21:52:47.108Z,30.87
2023-01-20T21:55:20.067Z,30.77
2023-01-20T21:57:48.431Z,35.83
2023-01-20T22:00:17.872Z,32.90
2023-01-20T22:02:44.881Z,36.93
2023-01-20T22:05:12.954Z,33.47
2023-01-20T22:07:40.423Z,32.90
2023-01-20T22:10:07.865Z,38.37
2023-01-20T22:12:35.686Z,33.30
2023-01-20T22:15:03.554Z,30.37
2023-01-20T22:17:30.719Z,32.93
2023-01-20T22:19:57.510Z,33.90
2023-01-20T22:22:24.139Z,38.13
2023-01-20T22:24:50.946Z,37.57
2023-01-20T22:27:17.782Z,31.37
2023-01-20T22:29:44.423Z,34.00
2023-01-20T22:32:11.220Z,35.03
2023-01-20T22:34:37.901Z,41.77
2023-01-20T22:37:04.576Z,35.93
2023-01-20T22:39:31.316Z,41.87
2023-01-20T22:41:58.074Z,40.77
2023-01-20T22:44:24.823Z,41.90
2023-01-20T22:46:51.539Z,38.47
2023-01-20T22:49:18.461Z,41.00
2023-01-20T22:51:45.146Z,42.73
2023-01-20T22:54:11.941Z,37.67
2023-01-20T22:56:39.216Z,41.90
2023-01-20T22:59:06.236Z,39.63
2023-01-20T23:01:35.294Z,44.77
2023-01-20T23:04:05.093Z,38.90
2023-01-20T23:06:34.343Z,40.20
2023-01-20T23:09:03.887Z,43.67
2023-01-20T23:11:31.999Z,50.30
2023-01-20T23:13:58.846Z,50.27
2023-01-20T23:16:26.551Z,40.10
2023-01-20T23:18:53.341Z,46.47
2023-01-20T23:21:21.122Z,39.67
2023-01-20T23:23:54.214Z,46.93
2023-01-20T23:26:25.936Z,47.10
2023-01-20T23:28:53.966Z,43.30
2023-01-20T23:31:22.454Z,52.27
2023-01-20T23:33:49.727Z,47.90
2023-01-20T23:36:19.204Z,53.37
2023-01-20T23:38:46.392Z,55.47
2023-01-20T23:41:14.459Z,46.80
2023-01-20T23:43:41.948Z,55.70
2023-01-20T23:46:09.780Z,50.63
2023-01-20T23:48:36.967Z,54.03
2023-01-20T23:51:06.038Z,53.23
2023-01-20T23:53:36.311Z,55.97
2023-01-20T23:56:23.887Z,51.67
2023-01-20T23:58:51.868Z,61.43
